sensor_id;sensor_type;location;lat;lon;timestamp;pressure;altitude;pressure_sealevel;temperature;humidity
21401;BME280;18038;50.166;18.908;2023-12-22T00:02:57;95051.25;;;4.37;82.69
21401;BME280;18038;50.166;18.908;2023-12-22T00:06:14;95043.09;;;4.38;82.55
21401;BME280;18038;50.166;18.908;2023-12-22T00:09:27;95048.38;;;4.38;82.61
21401;BME280;18038;50.166;18.908;2023-12-22T00:12:35;95060.31;;;4.41;82.33
21401;BME280;18038;50.166;18.908;2023-12-22T00:15:42;95073.50;;;4.41;82.48
21401;BME280;18038;50.166;18.908;2023-12-22T00:18:50;95056.16;;;4.33;83.03
21401;BME280;18038;50.166;18.908;2023-12-22T00:22:01;95070.97;;;4.27;83.98
21401;BME280;18038;50.166;18.908;2023-12-22T00:25:10;95080.47;;;4.10;84.15
21401;BME280;18038;50.166;18.908;2023-12-22T00:28:17;95086.38;;;4.05;84.54
21401;BME280;18038;50.166;18.908;2023-12-22T00:31:26;95090.06;;;3.98;84.94
21401;BME280;18038;50.166;18.908;2023-12-22T00:34:33;95092.97;;;3.90;84.85
21401;BME280;18038;50.166;18.908;2023-12-22T00:37:43;95093.84;;;3.77;84.97
21401;BME280;18038;50.166;18.908;2023-12-22T00:40:51;95091.03;;;3.78;83.61
21401;BME280;18038;50.166;18.908;2023-12-22T00:43:59;95087.00;;;3.76;83.53
21401;BME280;18038;50.166;18.908;2023-12-22T00:47:06;95104.34;;;3.83;83.70
21401;BME280;18038;50.166;18.908;2023-12-22T00:50:14;95108.59;;;3.84;83.35
21401;BME280;18038;50.166;18.908;2023-12-22T00:53:24;95114.28;;;3.81;83.26
21401;BME280;18038;50.166;18.908;2023-12-22T00:56:32;95110.25;;;3.79;83.05
21401;BME280;18038;50.166;18.908;2023-12-22T00:59:40;95113.91;;;3.78;82.82
21401;BME280;18038;50.166;18.908;2023-12-22T01:03:18;95118.34;;;3.77;82.60
21401;BME280;18038;50.166;18.908;2023-12-22T01:06:31;95124.03;;;3.74;82.75
21401;BME280;18038;50.166;18.908;2023-12-22T01:09:51;95130.13;;;3.75;82.55
21401;BME280;18038;50.166;18.908;2023-12-22T01:12:58;95136.78;;;3.77;81.46
21401;BME280;18038;50.166;18.908;2023-12-22T01:16:19;95148.16;;;3.71;80.71
21401;BME280;18038;50.166;18.908;2023-12-22T01:19:28;95140.09;;;3.66;81.25
21401;BME280;18038;50.166;18.908;2023-12-22T01:22:36;95150.66;;;3.59;81.00
21401;BME280;18038;50.166;18.908;2023-12-22T01:25:47;95162.84;;;3.54;81.25
21401;BME280;18038;50.166;18.908;2023-12-22T01:29:20;95162.63;;;3.55;81.49
21401;BME280;18038;50.166;18.908;2023-12-22T01:32:27;95168.94;;;3.48;81.61
21401;BME280;18038;50.166;18.908;2023-12-22T01:35:39;95178.03;;;3.52;81.58
21401;BME280;18038;50.166;18.908;2023-12-22T01:38:46;95170.94;;;3.52;81.03
21401;BME280;18038;50.166;18.908;2023-12-22T01:41:57;95178.47;;;3.49;81.03
21401;BME280;18038;50.166;18.908;2023-12-22T01:45:05;95166.28;;;3.48;80.45
21401;BME280;18038;50.166;18.908;2023-12-22T01:48:30;95165.50;;;3.47;80.13
21401;BME280;18038;50.166;18.908;2023-12-22T01:51:39;95174.19;;;3.48;79.47
21401;BME280;18038;50.166;18.908;2023-12-22T01:54:49;95168.50;;;3.51;78.96
21401;BME280;18038;50.166;18.908;2023-12-22T01:58:04;95159.38;;;3.53;78.13
21401;BME280;18038;50.166;18.908;2023-12-22T02:01:20;95154.78;;;3.49;77.63
21401;BME280;18038;50.166;18.908;2023-12-22T02:04:41;95148.09;;;3.46;77.55
21401;BME280;18038;50.166;18.908;2023-12-22T02:07:56;95143.28;;;3.36;76.64
21401;BME280;18038;50.166;18.908;2023-12-22T02:11:18;95140.03;;;3.34;75.93
21401;BME280;18038;50.166;18.908;2023-12-22T02:14:29;95135.19;;;3.31;76.21
21401;BME280;18038;50.166;18.908;2023-12-22T02:17:44;95143.09;;;3.31;75.48
21401;BME280;18038;50.166;18.908;2023-12-22T02:20:57;95148.34;;;3.31;75.48
21401;BME280;18038;50.166;18.908;2023-12-22T02:24:34;95151.41;;;3.28;75.06
21401;BME280;18038;50.166;18.908;2023-12-22T02:28:13;95146.94;;;3.29;74.40
21401;BME280;18038;50.166;18.908;2023-12-22T02:31:37;95137.28;;;3.23;75.15
21401;BME280;18038;50.166;18.908;2023-12-22T02:34:53;95152.63;;;3.26;74.99
21401;BME280;18038;50.166;18.908;2023-12-22T02:38:13;95151.03;;;3.25;75.01
21401;BME280;18038;50.166;18.908;2023-12-22T02:41:26;95151.03;;;3.25;74.95
21401;BME280;18038;50.166;18.908;2023-12-22T02:44:38;95142.53;;;3.23;75.12
21401;BME280;18038;50.166;18.908;2023-12-22T02:47:47;95152.63;;;3.19;75.46
21401;BME280;18038;50.166;18.908;2023-12-22T02:51:03;95161.75;;;3.16;73.95
21401;BME280;18038;50.166;18.908;2023-12-22T02:54:31;95154.47;;;3.18;72.27
21401;BME280;18038;50.166;18.908;2023-12-22T02:57:41;95161.31;;;3.26;71.80
21401;BME280;18038;50.166;18.908;2023-12-22T03:00:49;95175.69;;;3.30;71.87
21401;BME280;18038;50.166;18.908;2023-12-22T03:03:57;95176.91;;;3.28;71.15
21401;BME280;18038;50.166;18.908;2023-12-22T03:07:05;95185.00;;;3.26;70.80
21401;BME280;18038;50.166;18.908;2023-12-22T03:10:13;95177.72;;;3.28;69.11
21401;BME280;18038;50.166;18.908;2023-12-22T03:13:23;95166.59;;;3.26;69.48
21401;BME280;18038;50.166;18.908;2023-12-22T03:16:30;95171.66;;;3.28;69.39
21401;BME280;18038;50.166;18.908;2023-12-22T03:19:39;95173.88;;;3.31;68.86
21401;BME280;18038;50.166;18.908;2023-12-22T03:22:46;95157.09;;;3.25;68.51
21401;BME280;18038;50.166;18.908;2023-12-22T03:26:02;95163.75;;;3.28;68.18
21401;BME280;18038;50.166;18.908;2023-12-22T03:29:13;95170.63;;;3.29;67.82
21401;BME280;18038;50.166;18.908;2023-12-22T03:32:21;95156.25;;;3.31;67.46
21401;BME280;18038;50.166;18.908;2023-12-22T03:35:29;95163.34;;;3.31;66.63
21401;BME280;18038;50.166;18.908;2023-12-22T03:38:37;95160.91;;;3.36;66.79
21401;BME280;18038;50.166;18.908;2023-12-22T03:41:44;95158.50;;;3.28;66.80
21401;BME280;18038;50.166;18.908;2023-12-22T03:44:54;95161.94;;;3.28;66.42
21401;BME280;18038;50.166;18.908;2023-12-22T03:48:08;95159.31;;;3.28;66.13
21401;BME280;18038;50.166;18.908;2023-12-22T03:51:48;95166.34;;;3.34;66.39
21401;BME280;18038;50.166;18.908;2023-12-22T03:55:19;95169.78;;;3.35;66.61
21401;BME280;18038;50.166;18.908;2023-12-22T03:58:27;95165.94;;;3.37;65.31
21401;BME280;18038;50.166;18.908;2023-12-22T04:01:37;95153.00;;;3.36;64.14
21401;BME280;18038;50.166;18.908;2023-12-22T04:04:51;95138.00;;;3.36;64.66
21401;BME280;18038;50.166;18.908;2023-12-22T04:08:25;95132.75;;;3.36;64.55
21401;BME280;18038;50.166;18.908;2023-12-22T04:11:33;95130.56;;;3.27;64.99
21401;BME280;18038;50.166;18.908;2023-12-22T04:15:02;95122.88;;;3.25;65.82
21401;BME280;18038;50.166;18.908;2023-12-22T04:18:15;95117.25;;;3.15;66.48
21401;BME280;18038;50.166;18.908;2023-12-22T04:21:23;95119.31;;;3.06;67.19
21401;BME280;18038;50.166;18.908;2023-12-22T04:24:31;95113.66;;;3.03;67.96
21401;BME280;18038;50.166;18.908;2023-12-22T04:27:38;95109.63;;;3.00;69.43
21401;BME280;18038;50.166;18.908;2023-12-22T04:30:47;95118.56;;;2.86;70.84
21401;BME280;18038;50.166;18.908;2023-12-22T04:33:57;95137.59;;;2.81;72.46
21401;BME280;18038;50.166;18.908;2023-12-22T04:37:05;95151.94;;;2.79;73.38
21401;BME280;18038;50.166;18.908;2023-12-22T04:40:13;95205.31;;;2.79;74.81
21401;BME280;18038;50.166;18.908;2023-12-22T04:43:21;95187.94;;;2.18;79.26
21401;BME280;18038;50.166;18.908;2023-12-22T04:46:28;95215.81;;;1.44;85.13
21401;BME280;18038;50.166;18.908;2023-12-22T04:49:39;95225.34;;;1.11;88.48
21401;BME280;18038;50.166;18.908;2023-12-22T04:52:46;95225.84;;;0.93;89.34
21401;BME280;18038;50.166;18.908;2023-12-22T04:55:54;95229.41;;;0.85;89.86
21401;BME280;18038;50.166;18.908;2023-12-22T04:59:03;95223.81;;;0.60;90.73
21401;BME280;18038;50.166;18.908;2023-12-22T05:02:12;95234.41;;;0.52;92.05
21401;BME280;18038;50.166;18.908;2023-12-22T05:05:22;95255.22;;;0.39;92.81
21401;BME280;18038;50.166;18.908;2023-12-22T05:08:30;95252.28;;;0.42;93.40
21401;BME280;18038;50.166;18.908;2023-12-22T05:11:37;95268.97;;;0.41;93.63
21401;BME280;18038;50.166;18.908;2023-12-22T05:14:47;95275.25;;;0.25;94.24
21401;BME280;18038;50.166;18.908;2023-12-22T05:17:54;95277.94;;;0.10;95.64
21401;BME280;18038;50.166;18.908;2023-12-22T05:21:05;95271.03;;;0.02;96.66
21401;BME280;18038;50.166;18.908;2023-12-22T05:24:12;95259.53;;;0.03;96.77
21401;BME280;18038;50.166;18.908;2023-12-22T05:27:28;95241.78;;;-0.01;96.78
21401;BME280;18038;50.166;18.908;2023-12-22T05:30:40;95245.81;;;0.01;97.15
21401;BME280;18038;50.166;18.908;2023-12-22T05:33:48;95230.69;;;-0.03;96.67
21401;BME280;18038;50.166;18.908;2023-12-22T05:37:00;95232.81;;;0.08;95.65
21401;BME280;18038;50.166;18.908;2023-12-22T05:40:34;95233.00;;;0.06;94.11
21401;BME280;18038;50.166;18.908;2023-12-22T05:43:42;95231.00;;;0.08;91.72
21401;BME280;18038;50.166;18.908;2023-12-22T05:46:50;95216.75;;;0.11;90.80
21401;BME280;18038;50.166;18.908;2023-12-22T05:49:57;95228.47;;;0.15;89.83
21401;BME280;18038;50.166;18.908;2023-12-22T05:53:15;95225.25;;;0.20;87.33
21401;BME280;18038;50.166;18.908;2023-12-22T05:56:23;95219.09;;;0.27;85.48
21401;BME280;18038;50.166;18.908;2023-12-22T05:59:54;95234.06;;;0.33;85.06
21401;BME280;18038;50.166;18.908;2023-12-22T06:03:01;95243.34;;;0.36;83.97
21401;BME280;18038;50.166;18.908;2023-12-22T06:06:10;95238.94;;;0.37;82.94
21401;BME280;18038;50.166;18.908;2023-12-22T06:09:20;95254.06;;;0.41;83.12
21401;BME280;18038;50.166;18.908;2023-12-22T06:12:33;95252.44;;;0.40;82.97
21401;BME280;18038;50.166;18.908;2023-12-22T06:15:41;95253.63;;;0.38;83.50
21401;BME280;18038;50.166;18.908;2023-12-22T06:18:49;95252.63;;;0.39;83.50
21401;BME280;18038;50.166;18.908;2023-12-22T06:21:57;95248.81;;;0.41;83.56
21401;BME280;18038;50.166;18.908;2023-12-22T06:25:08;95250.84;;;0.39;83.09
21401;BME280;18038;50.166;18.908;2023-12-22T06:28:25;95264.78;;;0.46;82.81
21401;BME280;18038;50.166;18.908;2023-12-22T06:31:33;95273.81;;;0.44;83.18
21401;BME280;18038;50.166;18.908;2023-12-22T06:34:41;95265.97;;;0.44;83.27
21401;BME280;18038;50.166;18.908;2023-12-22T06:38:03;95268.59;;;0.44;83.34
21401;BME280;18038;50.166;18.908;2023-12-22T06:41:25;95290.91;;;0.40;84.07
21401;BME280;18038;50.166;18.908;2023-12-22T06:44:34;95289.09;;;0.40;84.44
21401;BME280;18038;50.166;18.908;2023-12-22T06:47:41;95291.31;;;0.37;84.40
21401;BME280;18038;50.166;18.908;2023-12-22T06:50:50;95281.00;;;0.35;84.54
21401;BME280;18038;50.166;18.908;2023-12-22T06:53:58;95287.78;;;0.29;84.74
21401;BME280;18038;50.166;18.908;2023-12-22T06:57:09;95281.56;;;0.30;83.93
21401;BME280;18038;50.166;18.908;2023-12-22T07:00:19;95283.44;;;0.37;83.57
21401;BME280;18038;50.166;18.908;2023-12-22T07:03:27;95280.25;;;0.41;82.35
21401;BME280;18038;50.166;18.908;2023-12-22T07:06:35;95277.06;;;0.46;82.21
21401;BME280;18038;50.166;18.908;2023-12-22T07:09:43;95275.69;;;0.50;81.42
21401;BME280;18038;50.166;18.908;2023-12-22T07:12:52;95274.31;;;0.54;81.31
21401;BME280;18038;50.166;18.908;2023-12-22T07:16:01;95275.19;;;0.61;80.32
21401;BME280;18038;50.166;18.908;2023-12-22T07:19:09;95272.41;;;0.63;80.35
21401;BME280;18038;50.166;18.908;2023-12-22T07:22:17;95266.94;;;0.64;79.33
21401;BME280;18038;50.166;18.908;2023-12-22T07:25:25;95288.63;;;0.80;78.93
21401;BME280;18038;50.166;18.908;2023-12-22T07:28:37;95283.00;;;0.83;79.55
21401;BME280;18038;50.166;18.908;2023-12-22T07:31:44;95305.66;;;0.90;79.83
21401;BME280;18038;50.166;18.908;2023-12-22T07:34:52;95312.31;;;0.93;80.02
21401;BME280;18038;50.166;18.908;2023-12-22T07:38:00;95311.28;;;0.87;80.71
21401;BME280;18038;50.166;18.908;2023-12-22T07:41:10;95320.00;;;0.94;81.74
21401;BME280;18038;50.166;18.908;2023-12-22T07:44:22;95307.75;;;1.02;81.37
21401;BME280;18038;50.166;18.908;2023-12-22T07:47:35;95311.88;;;1.11;81.29
21401;BME280;18038;50.166;18.908;2023-12-22T07:50:43;95319.53;;;1.12;81.86
21401;BME280;18038;50.166;18.908;2023-12-22T07:53:51;95317.13;;;1.17;82.10
21401;BME280;18038;50.166;18.908;2023-12-22T07:56:59;95309.50;;;1.22;83.09
21401;BME280;18038;50.166;18.908;2023-12-22T08:00:10;95309.19;;;1.39;83.08
21401;BME280;18038;50.166;18.908;2023-12-22T08:03:18;95305.63;;;1.47;83.30
21401;BME280;18038;50.166;18.908;2023-12-22T08:06:27;95307.09;;;1.56;82.37
21401;BME280;18038;50.166;18.908;2023-12-22T08:09:34;95303.63;;;1.49;82.58
21401;BME280;18038;50.166;18.908;2023-12-22T08:12:42;95303.78;;;1.47;82.83
21401;BME280;18038;50.166;18.908;2023-12-22T08:16:00;95293.09;;;1.42;82.87
21401;BME280;18038;50.166;18.908;2023-12-22T08:19:18;95298.91;;;1.37;83.41
21401;BME280;18038;50.166;18.908;2023-12-22T08:22:27;95329.78;;;1.35;83.83
21401;BME280;18038;50.166;18.908;2023-12-22T08:25:37;95323.28;;;1.31;83.25
21401;BME280;18038;50.166;18.908;2023-12-22T08:28:47;95327.69;;;1.24;83.78
21401;BME280;18038;50.166;18.908;2023-12-22T08:31:58;95343.22;;;1.26;83.54
21401;BME280;18038;50.166;18.908;2023-12-22T08:35:07;95350.09;;;1.27;84.50
21401;BME280;18038;50.166;18.908;2023-12-22T08:38:15;95343.91;;;1.34;85.01
21401;BME280;18038;50.166;18.908;2023-12-22T08:41:23;95335.97;;;1.28;85.93
21401;BME280;18038;50.166;18.908;2023-12-22T08:44:31;95334.75;;;1.24;85.74
21401;BME280;18038;50.166;18.908;2023-12-22T08:47:41;95342.41;;;1.25;84.69
21401;BME280;18038;50.166;18.908;2023-12-22T08:50:52;95337.56;;;1.29;84.46
21401;BME280;18038;50.166;18.908;2023-12-22T08:53:59;95340.09;;;1.37;84.32
21401;BME280;18038;50.166;18.908;2023-12-22T08:57:08;95345.66;;;1.55;83.45
21401;BME280;18038;50.166;18.908;2023-12-22T09:00:17;95332.38;;;1.63;82.05
21401;BME280;18038;50.166;18.908;2023-12-22T09:03:28;95324.06;;;1.60;81.15
21401;BME280;18038;50.166;18.908;2023-12-22T09:06:39;95327.13;;;1.63;79.73
21401;BME280;18038;50.166;18.908;2023-12-22T09:09:47;95317.84;;;1.67;78.58
21401;BME280;18038;50.166;18.908;2023-12-22T09:12:55;95312.88;;;1.79;78.40
21401;BME280;18038;50.166;18.908;2023-12-22T09:16:04;95322.41;;;1.94;77.54
21401;BME280;18038;50.166;18.908;2023-12-22T09:19:14;95315.19;;;2.16;76.82
21401;BME280;18038;50.166;18.908;2023-12-22T09:22:23;95323.34;;;2.27;76.08
21401;BME280;18038;50.166;18.908;2023-12-22T09:25:30;95326.13;;;2.19;76.70
21401;BME280;18038;50.166;18.908;2023-12-22T09:28:39;95321.66;;;2.13;76.87
21401;BME280;18038;50.166;18.908;2023-12-22T09:31:46;95315.38;;;2.07;77.31
21401;BME280;18038;50.166;18.908;2023-12-22T09:34:57;95322.81;;;1.97;77.26
21401;BME280;18038;50.166;18.908;2023-12-22T09:38:08;95318.75;;;1.88;78.00
21401;BME280;18038;50.166;18.908;2023-12-22T09:41:17;95322.59;;;1.92;78.30
21401;BME280;18038;50.166;18.908;2023-12-22T09:44:31;95317.16;;;1.87;78.21
21401;BME280;18038;50.166;18.908;2023-12-22T09:47:41;95341.41;;;1.96;78.92
21401;BME280;18038;50.166;18.908;2023-12-22T09:50:53;95327.53;;;2.15;78.40
21401;BME280;18038;50.166;18.908;2023-12-22T09:54:09;95335.88;;;2.32;77.98
21401;BME280;18038;50.166;18.908;2023-12-22T09:57:22;95335.06;;;2.38;77.09
21401;BME280;18038;50.166;18.908;2023-12-22T10:00:37;95328.22;;;2.44;76.96
21401;BME280;18038;50.166;18.908;2023-12-22T10:03:49;95321.16;;;2.51;76.51
21401;BME280;18038;50.166;18.908;2023-12-22T10:07:02;95318.94;;;2.54;75.98
21401;BME280;18038;50.166;18.908;2023-12-22T10:10:17;95305.19;;;2.52;76.12
21401;BME280;18038;50.166;18.908;2023-12-22T10:13:33;95305.59;;;2.49;76.34
21401;BME280;18038;50.166;18.908;2023-12-22T10:16:44;95287.00;;;2.58;77.52
21401;BME280;18038;50.166;18.908;2023-12-22T10:19:52;95286.59;;;2.54;75.85
21401;BME280;18038;50.166;18.908;2023-12-22T10:23:03;95278.72;;;2.54;75.62
21401;BME280;18038;50.166;18.908;2023-12-22T10:26:11;95271.84;;;2.53;76.05
21401;BME280;18038;50.166;18.908;2023-12-22T10:29:24;95266.81;;;2.65;75.92
21401;BME280;18038;50.166;18.908;2023-12-22T10:32:32;95270.63;;;2.69;75.94
21401;BME280;18038;50.166;18.908;2023-12-22T10:35:41;95261.13;;;2.68;75.42
21401;BME280;18038;50.166;18.908;2023-12-22T10:38:53;95247.38;;;2.79;75.24
21401;BME280;18038;50.166;18.908;2023-12-22T10:42:02;95251.03;;;2.78;72.97
21401;BME280;18038;50.166;18.908;2023-12-22T10:45:30;95254.88;;;2.95;71.75
21401;BME280;18038;50.166;18.908;2023-12-22T10:48:39;95260.31;;;2.87;70.85
21401;BME280;18038;50.166;18.908;2023-12-22T10:51:57;95278.94;;;2.79;71.68
21401;BME280;18038;50.166;18.908;2023-12-22T10:55:08;95278.94;;;2.59;73.77
21401;BME280;18038;50.166;18.908;2023-12-22T10:58:17;95299.50;;;2.42;77.41
21401;BME280;18038;50.166;18.908;2023-12-22T11:01:28;95309.69;;;1.91;84.23
21401;BME280;18038;50.166;18.908;2023-12-22T11:04:38;95303.47;;;1.57;86.87
21401;BME280;18038;50.166;18.908;2023-12-22T11:07:49;95299.38;;;1.48;88.13
21401;BME280;18038;50.166;18.908;2023-12-22T11:11:16;95292.28;;;1.41;88.78
21401;BME280;18038;50.166;18.908;2023-12-22T11:14:37;95273.69;;;1.36;89.35
21401;BME280;18038;50.166;18.908;2023-12-22T11:17:48;95290.28;;;1.43;89.78
21401;BME280;18038;50.166;18.908;2023-12-22T11:21:02;95281.63;;;1.50;89.56
21401;BME280;18038;50.166;18.908;2023-12-22T11:24:16;95291.06;;;1.44;89.29
21401;BME280;18038;50.166;18.908;2023-12-22T11:27:27;95281.03;;;1.48;89.47
21401;BME280;18038;50.166;18.908;2023-12-22T11:30:38;95272.19;;;1.55;86.43
21401;BME280;18038;50.166;18.908;2023-12-22T11:33:47;95265.06;;;1.91;84.99
21401;BME280;18038;50.166;18.908;2023-12-22T11:37:14;95251.00;;;2.31;81.57
21401;BME280;18038;50.166;18.908;2023-12-22T11:40:22;95253.25;;;2.54;79.35
21401;BME280;18038;50.166;18.908;2023-12-22T11:43:35;95257.06;;;3.05;76.88
21401;BME280;18038;50.166;18.908;2023-12-22T11:46:44;95254.41;;;3.38;74.13
21401;BME280;18038;50.166;18.908;2023-12-22T11:49:53;95246.41;;;3.65;72.78
21401;BME280;18038;50.166;18.908;2023-12-22T11:53:19;95257.75;;;3.65;71.92
21401;BME280;18038;50.166;18.908;2023-12-22T11:56:29;95260.88;;;3.87;71.34
21401;BME280;18038;50.166;18.908;2023-12-22T11:59:40;95249.34;;;3.89;68.77
21401;BME280;18038;50.166;18.908;2023-12-22T12:02:54;95261.78;;;3.68;67.17
21401;BME280;18038;50.166;18.908;2023-12-22T12:06:15;95248.47;;;3.50;67.07
21401;BME280;18038;50.166;18.908;2023-12-22T12:09:46;95268.31;;;3.52;66.22
21401;BME280;18038;50.166;18.908;2023-12-22T12:13:04;95270.72;;;3.60;64.93
21401;BME280;18038;50.166;18.908;2023-12-22T12:16:19;95266.53;;;3.46;64.72
21401;BME280;18038;50.166;18.908;2023-12-22T12:19:28;95258.81;;;3.45;65.70
21401;BME280;18038;50.166;18.908;2023-12-22T12:22:37;95259.16;;;3.61;63.81
21401;BME280;18038;50.166;18.908;2023-12-22T12:25:47;95238.47;;;3.72;62.50
21401;BME280;18038;50.166;18.908;2023-12-22T12:28:56;95258.38;;;4.06;61.68
21401;BME280;18038;50.166;18.908;2023-12-22T12:32:07;95227.16;;;4.09;61.63
21401;BME280;18038;50.166;18.908;2023-12-22T12:35:18;95220.81;;;3.85;61.23
21401;BME280;18038;50.166;18.908;2023-12-22T12:38:43;95225.59;;;3.57;62.29
21401;BME280;18038;50.166;18.908;2023-12-22T12:42:07;95223.44;;;3.27;62.73
21401;BME280;18038;50.166;18.908;2023-12-22T12:45:15;95227.50;;;3.16;64.56
21401;BME280;18038;50.166;18.908;2023-12-22T12:48:32;95255.88;;;3.01;65.30
21401;BME280;18038;50.166;18.908;2023-12-22T12:51:47;95285.78;;;2.60;70.62
21401;BME280;18038;50.166;18.908;2023-12-22T12:55:12;95272.59;;;2.20;72.10
21401;BME280;18038;50.166;18.908;2023-12-22T12:58:28;95278.22;;;2.10;72.75
21401;BME280;18038;50.166;18.908;2023-12-22T13:01:41;95275.41;;;2.12;72.79
21401;BME280;18038;50.166;18.908;2023-12-22T13:04:52;95269.16;;;2.20;72.42
21401;BME280;18038;50.166;18.908;2023-12-22T13:08:08;95290.22;;;2.46;71.48
21401;BME280;18038;50.166;18.908;2023-12-22T13:11:20;95282.97;;;2.62;69.87
21401;BME280;18038;50.166;18.908;2023-12-22T13:14:29;95283.75;;;2.55;66.63
21401;BME280;18038;50.166;18.908;2023-12-22T13:17:37;95283.78;;;2.62;63.91
21401;BME280;18038;50.166;18.908;2023-12-22T13:20:48;95287.00;;;2.71;61.15
21401;BME280;18038;50.166;18.908;2023-12-22T13:24:09;95284.38;;;2.71;60.58
21401;BME280;18038;50.166;18.908;2023-12-22T13:27:25;95287.00;;;2.71;60.49
21401;BME280;18038;50.166;18.908;2023-12-22T13:30:32;95304.78;;;2.69;59.80
21401;BME280;18038;50.166;18.908;2023-12-22T13:33:45;95297.13;;;2.67;61.65
21401;BME280;18038;50.166;18.908;2023-12-22T13:36:55;95294.69;;;2.52;60.10
21401;BME280;18038;50.166;18.908;2023-12-22T13:40:08;95308.63;;;2.53;60.04
21401;BME280;18038;50.166;18.908;2023-12-22T13:43:16;95303.19;;;2.48;60.39
21401;BME280;18038;50.166;18.908;2023-12-22T13:46:27;95305.38;;;2.44;60.70
21401;BME280;18038;50.166;18.908;2023-12-22T13:49:37;95300.75;;;2.46;60.90
21401;BME280;18038;50.166;18.908;2023-12-22T13:52:50;95297.06;;;2.34;59.59
21401;BME280;18038;50.166;18.908;2023-12-22T13:55:59;95276.03;;;2.21;58.89
21401;BME280;18038;50.166;18.908;2023-12-22T13:59:09;95300.72;;;2.33;60.16
21401;BME280;18038;50.166;18.908;2023-12-22T14:02:20;95301.91;;;2.30;59.36
21401;BME280;18038;50.166;18.908;2023-12-22T14:05:29;95305.13;;;2.26;59.61
21401;BME280;18038;50.166;18.908;2023-12-22T14:08:42;95317.47;;;2.25;59.63
21401;BME280;18038;50.166;18.908;2023-12-22T14:11:50;95316.47;;;2.33;59.65
21401;BME280;18038;50.166;18.908;2023-12-22T14:15:14;95291.59;;;2.22;59.29
21401;BME280;18038;50.166;18.908;2023-12-22T14:18:47;95314.03;;;2.31;60.28
21401;BME280;18038;50.166;18.908;2023-12-22T14:21:58;95297.88;;;2.35;60.95
21401;BME280;18038;50.166;18.908;2023-12-22T14:25:24;95304.75;;;2.36;62.05
21401;BME280;18038;50.166;18.908;2023-12-22T14:28:37;95300.72;;;2.33;61.38
21401;BME280;18038;50.166;18.908;2023-12-22T14:31:45;95298.09;;;2.33;61.81
21401;BME280;18038;50.166;18.908;2023-12-22T14:34:56;95299.28;;;2.37;63.17
21401;BME280;18038;50.166;18.908;2023-12-22T14:38:09;95307.16;;;2.37;62.58
21401;BME280;18038;50.166;18.908;2023-12-22T14:41:19;95315.88;;;2.38;63.03
21401;BME280;18038;50.166;18.908;2023-12-22T14:44:32;95322.34;;;2.35;62.78
21401;BME280;18038;50.166;18.908;2023-12-22T14:47:45;95321.31;;;2.29;62.93
21401;BME280;18038;50.166;18.908;2023-12-22T14:50:54;95322.94;;;2.30;63.20
21401;BME280;18038;50.166;18.908;2023-12-22T14:54:01;95331.84;;;2.29;63.00
21401;BME280;18038;50.166;18.908;2023-12-22T14:57:12;95338.47;;;2.25;62.88
21401;BME280;18038;50.166;18.908;2023-12-22T15:00:22;95326.72;;;2.21;63.32
21401;BME280;18038;50.166;18.908;2023-12-22T15:03:30;95333.00;;;2.20;63.14
21401;BME280;18038;50.166;18.908;2023-12-22T15:06:37;95339.06;;;2.21;63.19
21401;BME280;18038;50.166;18.908;2023-12-22T15:09:48;95329.56;;;2.20;63.18
21401;BME280;18038;50.166;18.908;2023-12-22T15:13:01;95336.25;;;2.22;63.14
21401;BME280;18038;50.166;18.908;2023-12-22T15:16:09;95329.56;;;2.20;62.81
21401;BME280;18038;50.166;18.908;2023-12-22T15:19:26;95338.66;;;2.17;62.39
21401;BME280;18038;50.166;18.908;2023-12-22T15:22:34;95337.22;;;2.15;62.48
21401;BME280;18038;50.166;18.908;2023-12-22T15:25:56;95335.19;;;2.10;62.53
21401;BME280;18038;50.166;18.908;2023-12-22T15:29:29;95339.41;;;2.04;62.53
21401;BME280;18038;50.166;18.908;2023-12-22T15:32:43;95337.19;;;2.01;62.61
21401;BME280;18038;50.166;18.908;2023-12-22T15:35:54;95340.97;;;1.92;62.03
21401;BME280;18038;50.166;18.908;2023-12-22T15:39:02;95339.91;;;1.80;61.92
21401;BME280;18038;50.166;18.908;2023-12-22T15:42:10;95348.78;;;1.79;62.47
21401;BME280;18038;50.166;18.908;2023-12-22T15:45:19;95353.84;;;1.80;63.16
21401;BME280;18038;50.166;18.908;2023-12-22T15:48:32;95358.69;;;1.77;63.17
21401;BME280;18038;50.166;18.908;2023-12-22T15:51:39;95357.44;;;1.73;62.47
21401;BME280;18038;50.166;18.908;2023-12-22T15:54:47;95356.06;;;1.77;63.36
21401;BME280;18038;50.166;18.908;2023-12-22T15:57:55;95356.66;;;1.79;63.44
21401;BME280;18038;50.166;18.908;2023-12-22T16:01:12;95347.34;;;1.76;62.77
21401;BME280;18038;50.166;18.908;2023-12-22T16:04:19;95354.66;;;1.81;62.65
21401;BME280;18038;50.166;18.908;2023-12-22T16:07:32;95347.78;;;1.80;62.89
21401;BME280;18038;50.166;18.908;2023-12-22T16:10:46;95366.97;;;1.80;62.84
21401;BME280;18038;50.166;18.908;2023-12-22T16:13:57;95361.47;;;1.75;62.61
21401;BME280;18038;50.166;18.908;2023-12-22T16:17:22;95367.75;;;1.74;62.89
21401;BME280;18038;50.166;18.908;2023-12-22T16:20:43;95376.81;;;1.72;62.41
21401;BME280;18038;50.166;18.908;2023-12-22T16:23:50;95383.50;;;1.74;62.25
21401;BME280;18038;50.166;18.908;2023-12-22T16:26:58;95373.56;;;1.70;62.79
21401;BME280;18038;50.166;18.908;2023-12-22T16:30:07;95372.31;;;1.65;62.28
21401;BME280;18038;50.166;18.908;2023-12-22T16:33:18;95378.63;;;1.71;62.32
21401;BME280;18038;50.166;18.908;2023-12-22T16:36:26;95363.84;;;1.63;62.56
21401;BME280;18038;50.166;18.908;2023-12-22T16:39:35;95370.72;;;1.64;62.74
21401;BME280;18038;50.166;18.908;2023-12-22T16:42:54;95370.66;;;1.58;62.99
21401;BME280;18038;50.166;18.908;2023-12-22T16:46:02;95396.72;;;1.59;63.16
21401;BME280;18038;50.166;18.908;2023-12-22T16:49:12;95392.91;;;1.62;63.30
21401;BME280;18038;50.166;18.908;2023-12-22T16:52:24;95409.44;;;1.62;62.97
21401;BME280;18038;50.166;18.908;2023-12-22T16:55:33;95400.59;;;1.63;62.77
21401;BME280;18038;50.166;18.908;2023-12-22T16:58:41;95403.22;;;1.63;62.67